Time;durP1;ratioP1;P1;durP2;ratioP2;P2;SDS_P1;SDS_P2;PMS_P1;PMS_P2;Temp;Humidity;BMP_temperature;BMP_pressure;BME280_temperature;BME280_humidity;BME280_pressure;Samples;Min_cycle;Max_cycle;Signal;HPM_P1;HPM_P2
2022/04/16 00:01:08;;;;;;;19.67;10.43;;;;;;;6.66;87.39;102965.03;5051713;28;20021;-69
2022/04/16 00:03:33;;;;;;;17.02;9.45;;;;;;;6.65;87.38;102968.63;5051727;28;20041;-71
2022/04/16 00:05:59;;;;;;;17.75;9.52;;;;;;;6.61;87.42;102959.25;5051697;28;20876;-69
2022/04/16 00:08:27;;;;;;;20.33;10.32;;;;;;;6.60;88.43;102968.97;5051612;28;20036;-69
2022/04/16 00:10:53;;;;;;;21.42;12.23;;;;;;;6.57;88.22;102972.69;5051352;28;20368;-69
2022/04/16 00:13:20;;;;;;;18.17;10.23;;;;;;;6.57;88.43;102964.75;5051601;28;20416;-69
2022/04/16 00:15:46;;;;;;;19.50;12.25;;;;;;;6.55;88.29;102966.69;5051455;28;20037;-69
2022/04/16 00:18:12;;;;;;;19.02;10.63;;;;;;;6.50;88.66;102958.25;5051393;28;20070;-69
2022/04/16 00:20:38;;;;;;;17.95;9.75;;;;;;;6.49;88.39;102969.81;5051385;28;20021;-69
2022/04/16 00:23:04;;;;;;;19.55;11.05;;;;;;;6.48;88.61;102964.63;5050000;28;20761;-68
2022/04/16 00:25:32;;;;;;;23.40;12.52;;;;;;;6.45;89.15;102963.06;5050635;28;20459;-68
2022/04/16 00:27:59;;;;;;;23.02;11.60;;;;;;;6.42;88.67;102967.72;5051052;28;20059;-68
2022/04/16 00:30:24;;;;;;;24.20;14.07;;;;;;;6.38;89.52;102961.84;5050240;28;20037;-69
2022/04/16 00:32:54;;;;;;;20.20;10.95;;;;;;;6.39;89.67;102966.16;5051072;28;20373;-69
2022/04/16 00:35:20;;;;;;;19.15;11.35;;;;;;;6.39;90.05;102963.50;5051032;28;20392;-69
2022/04/16 00:37:46;;;;;;;21.88;12.77;;;;;;;6.35;89.95;102965.56;5049823;28;20029;-68
2022/04/16 00:40:11;;;;;;;24.40;12.05;;;;;;;6.38;89.79;102966.28;5051010;28;20534;-69
2022/04/16 00:42:39;;;;;;;22.63;11.98;;;;;;;6.34;89.95;102963.88;5051032;28;20056;-68
2022/04/16 00:45:06;;;;;;;20.98;11.77;;;;;;;6.36;89.70;102969.06;5050584;28;20028;-68
2022/04/16 00:47:31;;;;;;;20.25;11.75;;;;;;;6.36;89.87;102972.53;5049053;28;20025;-69
2022/04/16 00:49:57;;;;;;;21.27;11.00;;;;;;;6.32;89.78;102964.97;5050505;28;20025;-69
2022/04/16 00:52:22;;;;;;;19.55;10.73;;;;;;;6.33;90.41;102969.28;5050454;28;21044;-69
2022/04/16 00:54:50;;;;;;;20.52;12.05;;;;;;;6.29;90.62;102962.53;5050773;28;20059;-69
2022/04/16 00:57:16;;;;;;;21.00;12.10;;;;;;;6.30;89.81;102961.56;5049663;28;20464;-68
2022/04/16 00:59:42;;;;;;;20.50;11.35;;;;;;;6.32;90.65;102971.09;5050640;28;20033;-69
2022/04/16 01:02:09;;;;;;;22.33;12.40;;;;;;;6.33;90.33;102961.34;5050430;28;20048;-69
2022/04/16 01:04:35;;;;;;;23.17;12.15;;;;;;;6.30;90.65;102959.75;5050598;28;20115;-69
2022/04/16 01:07:00;;;;;;;22.42;12.35;;;;;;;6.30;90.74;102966.88;5050344;28;20124;-68
2022/04/16 01:09:26;;;;;;;26.00;11.68;;;;;;;6.31;90.13;102966.78;5050310;28;20036;-68
2022/04/16 01:11:51;;;;;;;24.48;13.52;;;;;;;6.27;91.03;102961.81;5050545;28;20185;-68
2022/04/16 01:14:19;;;;;;;21.27;11.40;;;;;;;6.27;90.77;102965.31;5050304;28;20029;-68
2022/04/16 01:16:45;;;;;;;21.40;11.85;;;;;;;6.26;90.69;102970.69;5050313;28;20108;-68
2022/04/16 01:19:11;;;;;;;21.35;11.00;;;;;;;6.21;91.30;102967.56;5050431;28;20124;-68
2022/04/16 01:21:36;;;;;;;23.88;13.45;;;;;;;6.22;91.07;102977.22;5050161;28;20025;-69
2022/04/16 01:24:05;;;;;;;23.05;12.30;;;;;;;6.18;91.11;102976.56;5050264;28;20043;-68
2022/04/16 01:26:30;;;;;;;23.52;13.25;;;;;;;6.22;90.79;102979.88;5049213;28;20491;-68
2022/04/16 01:28:56;;;;;;;22.92;12.63;;;;;;;6.21;91.27;102986.09;5050060;28;20127;-68
2022/04/16 01:31:21;;;;;;;23.58;12.68;;;;;;;6.19;90.63;102985.41;5049627;28;20506;-68
2022/04/16 01:33:46;;;;;;;24.52;14.23;;;;;;;6.19;91.21;102986.22;5049968;28;20029;-68
2022/04/16 01:36:12;;;;;;;23.70;13.77;;;;;;;6.18;91.20;102987.19;5049880;28;20079;-68
2022/04/16 01:38:37;;;;;;;25.10;13.80;;;;;;;6.16;91.67;102989.13;5049938;28;20464;-68
2022/04/16 01:41:04;;;;;;;25.10;11.77;;;;;;;6.12;91.80;102985.00;5049799;28;20021;-69
2022/04/16 01:43:29;;;;;;;24.27;13.00;;;;;;;6.12;91.42;102999.09;5049802;28;20037;-68
2022/04/16 01:45:56;;;;;;;23.02;13.38;;;;;;;6.09;91.84;102993.19;5049807;28;20052;-68
2022/04/16 01:48:22;;;;;;;25.98;13.30;;;;;;;6.06;92.42;102993.41;5049625;28;20031;-69
2022/04/16 01:50:48;;;;;;;22.92;12.77;;;;;;;6.04;91.81;102993.50;5049377;28;20024;-68
2022/04/16 01:53:14;;;;;;;23.90;12.68;;;;;;;6.01;92.58;102987.59;5049640;28;20040;-68
2022/04/16 01:55:40;;;;;;;23.80;12.02;;;;;;;6.04;93.36;102997.97;5049636;28;20487;-68
2022/04/16 01:58:06;;;;;;;25.05;13.90;;;;;;;6.02;92.68;103006.03;5049440;28;20036;-68
2022/04/16 02:00:33;;;;;;;25.30;14.55;;;;;;;5.98;92.66;102993.97;5049428;28;20174;-69
2022/04/16 02:02:59;;;;;;;23.65;12.60;;;;;;;5.98;92.61;102996.63;5049348;28;20045;-69
2022/04/16 02:05:24;;;;;;;27.65;13.13;;;;;;;5.97;92.66;102994.06;5049444;28;20107;-68
2022/04/16 02:07:50;;;;;;;25.83;14.13;;;;;;;5.97;92.97;102992.25;5049144;28;20052;-68
2022/04/16 02:10:16;;;;;;;23.48;11.93;;;;;;;5.93;92.54;102988.16;5047982;28;20499;-68
2022/04/16 02:12:42;;;;;;;27.95;14.05;;;;;;;5.94;92.71;102987.19;5049417;28;20134;-69
2022/04/16 02:15:09;;;;;;;26.00;14.35;;;;;;;5.92;92.53;102997.03;5049315;28;20044;-68
2022/04/16 02:17:36;;;;;;;24.63;14.48;;;;;;;5.87;92.84;102985.97;5049155;28;20473;-68
2022/04/16 02:20:03;;;;;;;25.77;14.88;;;;;;;5.90;93.33;102997.16;5049082;28;20032;-69
2022/04/16 02:22:42;;;;;;;23.63;13.32;;;;;;;5.87;93.72;102991.25;5049231;28;20119;-68
2022/04/16 02:25:08;;;;;;;22.75;13.10;;;;;;;5.83;93.68;102992.44;5049262;28;20499;-69
2022/04/16 02:27:34;;;;;;;25.27;13.40;;;;;;;5.80;93.59;102997.94;5048890;28;20116;-69
2022/04/16 02:30:02;;;;;;;26.20;12.85;;;;;;;5.77;94.29;102998.19;5048724;28;20874;-69
2022/04/16 02:32:28;;;;;;;23.20;12.45;;;;;;;5.77;94.04;102993.72;5048675;28;20112;-69
2022/04/16 02:34:53;;;;;;;24.10;13.82;;;;;;;5.74;94.25;102993.94;5048850;28;20116;-68
2022/04/16 02:37:18;;;;;;;29.73;15.57;;;;;;;5.72;94.26;102995.84;5048898;28;20109;-69
2022/04/16 02:39:44;;;;;;;25.80;13.23;;;;;;;5.69;94.58;103002.22;5049182;28;20397;-69
2022/04/16 02:42:09;;;;;;;21.70;12.77;;;;;;;5.67;94.60;102995.34;5047905;28;20392;-69
2022/04/16 02:47:18;;;;;;;26.02;13.95;;;;;;;5.62;94.83;102997.47;5049015;28;20052;-69
2022/04/16 02:49:43;;;;;;;23.65;14.15;;;;;;;5.55;95.47;102993.56;5048834;28;20049;-69
2022/04/16 02:52:09;;;;;;;25.75;14.32;;;;;;;5.58;94.66;103004.81;5047708;28;20047;-69
2022/04/16 02:54:37;;;;;;;26.65;13.45;;;;;;;5.57;94.90;103012.84;5048991;28;20384;-69
2022/04/16 02:57:03;;;;;;;23.30;13.32;;;;;;;5.52;95.14;103014.97;5048817;28;20033;-69
2022/04/16 02:59:28;;;;;;;25.05;12.82;;;;;;;5.53;95.07;103012.22;5048911;28;20114;-69
2022/04/16 03:01:54;;;;;;;24.60;12.30;;;;;;;5.53;95.36;103014.00;5049006;28;20076;-69
2022/04/16 03:04:21;;;;;;;25.02;13.45;;;;;;;5.45;95.74;103009.28;5080739;28;20138;-69
2022/04/16 03:06:46;;;;;;;25.05;14.13;;;;;;;5.51;95.33;103016.78;5048876;28;20464;-69
2022/04/16 03:09:11;;;;;;;22.40;13.32;;;;;;;5.48;95.22;103017.00;5048754;28;20036;-69
2022/04/16 03:11:37;;;;;;;27.90;14.98;;;;;;;5.44;95.88;103015.53;5048692;28;20132;-69
2022/04/16 03:17:31;;;;;;;26.42;14.77;;;;;;;5.38;95.89;103005.38;5048504;28;20025;-69
2022/04/16 03:19:32;;;;;;;26.52;13.90;;;;;;;5.38;96.12;103024.75;5049028;28;20040;-69
2022/04/16 03:21:57;;;;;;;27.20;15.63;;;;;;;5.37;96.43;103016.91;5052345;28;20487;-69
2022/04/16 03:24:23;;;;;;;29.80;15.38;;;;;;;5.35;96.34;103018.84;5052419;28;20048;-69
2022/04/16 03:26:48;;;;;;;25.88;14.52;;;;;;;5.33;96.83;103018.09;5052087;28;20071;-69
2022/04/16 03:29:14;;;;;;;24.88;13.30;;;;;;;5.29;96.77;103020.09;5052074;28;20037;-69
2022/04/16 03:31:40;;;;;;;26.25;14.13;;;;;;;5.31;97.07;103020.84;5051899;28;20032;-69
2022/04/16 03:34:05;;;;;;;27.15;14.98;;;;;;;5.30;97.58;103015.66;5051901;28;20052;-69
2022/04/16 03:36:32;;;;;;;28.42;15.43;;;;;;;5.28;97.75;103019.25;5051946;28;20037;-69
2022/04/16 03:38:57;;;;;;;32.55;16.23;;;;;;;5.26;97.72;103018.50;5052118;28;20028;-69
2022/04/16 03:41:23;;;;;;;29.70;13.70;;;;;;;5.26;97.00;103021.16;5051966;28;20131;-69
2022/04/16 03:43:48;;;;;;;26.27;14.50;;;;;;;5.26;97.17;103023.78;5052035;28;20036;-69
2022/04/16 03:46:13;;;;;;;29.40;14.35;;;;;;;5.26;97.61;103023.78;5052060;28;20028;-69
2022/04/16 03:48:39;;;;;;;30.38;15.88;;;;;;;5.23;97.73;103021.38;5051991;28;20372;-69
2022/04/16 03:51:04;;;;;;;26.52;15.23;;;;;;;5.23;97.34;103024.03;5051723;28;20400;-69
2022/04/16 03:53:30;;;;;;;27.83;14.50;;;;;;;5.23;97.87;103010.78;5051832;28;20112;-69
2022/04/16 04:01:24;;;;;;;28.35;15.00;;;;;;;5.17;98.18;103018.34;5052008;28;20043;-69
2022/04/16 04:03:50;;;;;;;27.30;14.05;;;;;;;5.15;97.87;103023.72;5051560;28;20049;-69
2022/04/16 04:06:15;;;;;;;28.30;16.10;;;;;;;5.17;98.24;103023.63;5050159;28;20045;-69
2022/04/16 04:08:41;;;;;;;28.33;14.18;;;;;;;5.17;98.04;103027.09;5051508;28;20038;-69
2022/04/16 04:11:06;;;;;;;30.30;15.15;;;;;;;5.16;98.36;103025.44;5051638;28;20459;-69
2022/04/16 04:13:32;;;;;;;30.85;16.40;;;;;;;5.14;98.78;103037.91;5051392;28;20040;-69
2022/04/16 04:15:57;;;;;;;31.17;16.63;;;;;;;5.13;98.63;103032.72;5051550;28;20033;-69
2022/04/16 04:18:24;;;;;;;34.42;19.20;;;;;;;5.07;98.93;103019.91;5051435;28;20033;-69
2022/04/16 04:20:50;;;;;;;32.45;18.02;;;;;;;5.11;98.71;103034.59;5050040;28;20120;-69
2022/04/16 04:23:17;;;;;;;32.65;16.30;;;;;;;5.07;98.60;103033.16;5051408;28;20033;-69
2022/04/16 04:25:42;;;;;;;28.35;16.60;;;;;;;5.07;98.77;103034.00;5049824;28;20062;-69
2022/04/16 04:28:07;;;;;;;31.45;17.42;;;;;;;5.07;98.85;103041.91;5049784;28;20473;-69
2022/04/16 04:30:33;;;;;;;29.40;16.58;;;;;;;5.08;99.09;103045.41;5051136;28;20040;-69
2022/04/16 04:32:59;;;;;;;29.83;17.00;;;;;;;5.02;99.45;103042.22;5050640;28;20029;-69
2022/04/16 04:35:25;;;;;;;29.88;16.52;;;;;;;5.04;99.45;103048.28;5050584;28;20519;-69
2022/04/16 04:37:50;;;;;;;29.33;18.08;;;;;;;5.03;99.09;103041.31;5050318;28;20108;-69
2022/04/16 04:40:15;;;;;;;29.13;14.50;;;;;;;5.04;99.23;103042.97;5051013;28;20529;-69
2022/04/16 04:42:41;;;;;;;27.67;15.88;;;;;;;5.08;99.43;103050.69;5049453;28;20095;-69
2022/04/16 04:45:09;;;;;;;31.13;16.35;;;;;;;5.07;99.44;103056.94;5050837;28;20032;-69
2022/04/16 04:47:34;;;;;;;30.70;16.25;;;;;;;5.07;99.66;103056.94;5050595;28;20039;-69
2022/04/16 04:50:00;;;;;;;28.83;14.80;;;;;;;5.08;99.50;103061.28;5050604;28;20484;-69
2022/04/16 04:52:26;;;;;;;28.05;15.77;;;;;;;5.07;99.07;103062.25;5050714;28;20043;-69
2022/04/16 04:54:56;;;;;;;29.45;16.40;;;;;;;5.09;99.21;103065.63;5049306;28;20032;-69
2022/04/16 04:57:21;;;;;;;29.85;16.42;;;;;;;5.07;99.17;103067.53;5050560;28;20039;-69
2022/04/16 04:59:47;;;;;;;30.83;18.38;;;;;;;5.06;99.50;103066.69;5050560;28;20384;-69
2022/04/16 05:02:12;;;;;;;30.73;15.45;;;;;;;5.02;99.33;103068.69;5050202;28;20033;-69
2022/04/16 05:04:38;;;;;;;32.42;17.45;;;;;;;5.12;99.74;103082.13;5050217;28;20486;-69
2022/04/16 05:07:05;;;;;;;30.05;17.20;;;;;;;5.15;99.39;103079.25;5050532;28;20041;-69
2022/04/16 05:09:31;;;;;;;32.55;17.10;;;;;;;5.14;99.49;103077.59;5050026;28;20032;-69
2022/04/16 05:11:56;;;;;;;32.20;16.33;;;;;;;5.22;99.06;103082.34;5050381;28;20072;-69
2022/04/16 05:14:22;;;;;;;33.20;17.60;;;;;;;5.30;99.29;103085.31;5050239;28;20029;-69
2022/04/16 05:16:48;;;;;;;29.45;16.05;;;;;;;5.49;99.43;103095.44;5050251;28;20036;-69
2022/04/16 05:19:14;;;;;;;30.40;17.02;;;;;;;5.72;98.66;103091.16;5050071;28;20938;-69
2022/04/16 05:21:40;;;;;;;30.58;16.35;;;;;;;5.74;97.98;103080.44;5050267;28;20507;-69
2022/04/16 05:24:06;;;;;;;28.50;16.95;;;;;;;5.88;97.70;103093.56;5050071;28;20108;-69
2022/04/16 05:26:32;;;;;;;30.23;15.52;;;;;;;5.86;97.13;103083.06;5049985;28;20123;-69
2022/04/16 05:28:58;;;;;;;27.50;14.68;;;;;;;5.96;97.00;103093.88;5049952;28;20100;-69
2022/04/16 05:31:26;;;;;;;32.33;18.02;;;;;;;6.33;96.87;103104.44;5049948;28;20033;-69
2022/04/16 05:36:36;;;;;;;31.40;17.52;;;;;;;6.91;93.20;103096.56;5049778;28;20075;-69
2022/04/16 05:39:01;;;;;;;29.25;15.48;;;;;;;6.95;92.52;103112.16;5049312;28;20494;-69
2022/04/16 05:41:26;;;;;;;32.00;15.63;;;;;;;6.82;92.63;103116.69;5048558;28;20098;-69
2022/04/16 05:43:53;;;;;;;26.55;15.55;;;;;;;6.77;93.00;103113.53;5047860;28;20037;-69
2022/04/16 05:46:18;;;;;;;27.38;14.85;;;;;;;6.84;92.74;103112.13;5049679;28;20037;-69
2022/04/16 05:48:44;;;;;;;32.22;17.90;;;;;;;6.73;92.89;103097.03;5049680;28;20119;-69
2022/04/16 05:51:10;;;;;;;30.77;16.45;;;;;;;6.85;92.93;103115.63;5049528;28;20032;-69
2022/04/16 05:53:36;;;;;;;29.52;17.25;;;;;;;6.84;93.21;103109.47;5049581;28;20029;-69
2022/04/16 05:56:03;;;;;;;30.10;16.20;;;;;;;7.15;92.33;103121.25;5049888;28;20522;-69
2022/04/16 05:58:28;;;;;;;30.73;17.20;;;;;;;7.43;91.84;103117.28;5049390;28;20040;-69
2022/04/16 06:00:55;;;;;;;27.13;14.52;;;;;;;7.67;90.22;103126.94;5049427;28;20029;-69
2022/04/16 06:03:21;;;;;;;31.52;17.52;;;;;;;7.57;89.79;103126.84;5048916;28;20056;-69
2022/04/16 06:05:47;;;;;;;28.25;16.35;;;;;;;7.44;90.43;103124.28;5049398;28;20049;-69
2022/04/16 06:08:12;;;;;;;31.85;17.55;;;;;;;7.25;90.71;103122.19;5049415;28;20484;-69
2022/04/16 06:10:37;;;;;;;28.58;16.42;;;;;;;7.28;91.47;103145.00;5049267;28;20021;-69
2022/04/16 06:13:04;;;;;;;28.63;16.73;;;;;;;7.32;91.32;103146.47;5049206;28;20374;-69
2022/04/16 06:15:31;;;;;;;32.83;18.15;;;;;;;7.35;91.21;103142.75;5049045;28;20120;-70
2022/04/16 06:17:57;;;;;;;30.83;16.58;;;;;;;7.36;91.38;103134.66;5049203;28;20095;-70
2022/04/16 06:20:23;;;;;;;29.60;16.98;;;;;;;7.37;91.65;103143.47;5049210;28;20104;-69
2022/04/16 06:22:48;;;;;;;29.30;17.75;;;;;;;7.36;91.70;103144.41;5049192;28;20033;-69
2022/04/16 06:25:14;;;;;;;32.05;18.23;;;;;;;7.29;92.08;103144.06;5048885;28;20047;-69
2022/04/16 06:27:39;;;;;;;33.10;18.73;;;;;;;7.31;92.54;103131.53;5049085;28;20468;-69
2022/04/16 06:30:09;;;;;;;31.50;17.45;;;;;;;7.57;92.02;103156.06;5049201;28;20448;-69
2022/04/16 06:32:36;;;;;;;34.05;18.50;;;;;;;7.75;91.43;103153.72;5049141;28;20035;-69
2022/04/16 06:35:05;;;;;;;34.40;17.55;;;;;;;7.84;91.35;103157.50;5049073;28;20021;-69
2022/04/16 06:37:32;;;;;;;29.15;16.92;;;;;;;7.94;91.46;103149.59;5048968;28;20464;-70
2022/04/16 06:39:58;;;;;;;29.50;17.63;;;;;;;8.06;90.89;103157.44;5043478;28;20056;-73
2022/04/16 06:42:23;;;;;;;34.97;18.50;;;;;;;8.11;90.84;103149.13;5043939;28;20653;-73
2022/04/16 06:44:48;;;;;;;31.13;19.27;;;;;;;8.11;90.52;103154.44;5044567;28;20499;-73
2022/04/16 06:47:14;;;;;;;29.08;17.42;;;;;;;8.11;90.25;103151.78;5046439;28;20585;-70
2022/04/16 06:49:39;;;;;;;32.83;16.80;;;;;;;8.13;90.24;103149.84;5048857;28;20033;-70
2022/04/16 06:52:05;;;;;;;30.92;19.27;;;;;;;8.22;89.99;103138.44;5049004;28;20461;-70
2022/04/16 06:54:30;;;;;;;29.60;18.25;;;;;;;8.37;89.04;103151.47;5049016;28;20037;-70
2022/04/16 06:56:55;;;;;;;29.52;17.95;;;;;;;8.34;89.26;103144.59;5052500;28;20044;-70
2022/04/16 06:59:21;;;;;;;32.25;19.17;;;;;;;8.35;89.46;103157.75;5051592;28;20055;-70
2022/04/16 07:01:46;;;;;;;27.55;16.45;;;;;;;8.32;89.42;103146.53;5051474;28;20036;-70
2022/04/16 07:04:11;;;;;;;31.52;17.33;;;;;;;8.34;89.96;103153.41;5052610;28;20111;-70
2022/04/16 07:06:39;;;;;;;31.02;19.27;;;;;;;8.37;89.49;103152.31;5052638;28;20037;-70
2022/04/16 07:09:04;;;;;;;30.52;17.48;;;;;;;8.40;90.06;103159.22;5052563;28;20056;-71
2022/04/16 07:11:30;;;;;;;30.38;16.63;;;;;;;8.41;89.93;103144.94;5051333;28;20583;-70
2022/04/16 07:13:55;;;;;;;30.92;17.15;;;;;;;8.58;90.34;103159.53;5052615;28;20111;-71
2022/04/16 07:16:20;;;;;;;34.63;17.67;;;;;;;8.70;89.87;103155.88;5052486;28;20028;-71
2022/04/16 07:18:46;;;;;;;31.92;17.60;;;;;;;8.78;88.96;103162.25;5052104;28;20098;-70
2022/04/16 07:21:11;;;;;;;33.17;18.60;;;;;;;8.87;88.28;103157.97;5052180;28;20040;-70
2022/04/16 07:23:37;;;;;;;32.50;17.77;;;;;;;8.95;89.06;103154.66;5052223;28;20033;-71
2022/04/16 07:26:02;;;;;;;30.55;16.83;;;;;;;9.04;87.73;103153.91;5050927;28;20036;-71
2022/04/16 07:28:28;;;;;;;28.52;16.27;;;;;;;9.23;87.85;103163.81;5052157;28;20068;-70
2022/04/16 07:30:53;;;;;;;28.48;17.15;;;;;;;9.53;85.77;103152.34;5052142;28;20052;-70
2022/04/16 07:33:19;;;;;;;31.58;16.10;;;;;;;9.88;84.74;103156.44;5050951;28;20029;-70
2022/04/16 07:35:44;;;;;;;28.15;16.55;;;;;;;10.52;82.72;103156.00;5052095;28;20040;-70
2022/04/16 07:38:09;;;;;;;27.42;16.58;;;;;;;10.96;79.16;103159.09;5051824;28;20116;-70
2022/04/16 07:40:35;;;;;;;28.58;16.80;;;;;;;11.03;78.03;103167.41;5050145;28;20025;-71
2022/04/16 07:43:01;;;;;;;35.13;16.98;;;;;;;10.91;79.29;103165.84;5051410;28;20102;-70
2022/04/16 07:45:27;;;;;;;26.25;13.80;;;;;;;10.78;79.67;103170.63;5051942;28;20040;-70
2022/04/16 07:47:53;;;;;;;27.40;14.90;;;;;;;10.72;78.96;103164.03;5051926;28;20035;-70
2022/04/16 07:50:18;;;;;;;27.45;14.75;;;;;;;10.81;80.07;103159.66;5051826;28;20480;-70
2022/04/16 07:52:46;;;;;;;27.35;14.02;;;;;;;11.10;77.23;103167.66;5051667;28;20044;-70
2022/04/16 07:55:11;;;;;;;25.50;13.55;;;;;;;11.47;75.36;103161.50;5051785;28;20368;-70
2022/04/16 07:57:37;;;;;;;25.45;14.07;;;;;;;12.28;73.62;103165.22;5051982;28;20036;-70
2022/04/16 08:00:04;;;;;;;24.63;13.80;;;;;;;13.47;70.49;103164.91;5051762;28;20035;-70
2022/04/16 08:02:30;;;;;;;23.80;13.40;;;;;;;15.10;64.57;103158.25;5051704;28;20373;-70
2022/04/16 08:04:55;;;;;;;20.48;12.00;;;;;;;16.08;59.22;103157.09;5051347;28;20106;-70
2022/04/16 08:07:20;;;;;;;33.20;14.57;;;;;;;17.00;56.54;103154.44;5050853;28;20051;-70
2022/04/16 08:09:46;;;;;;;20.30;11.52;;;;;;;17.35;53.25;103169.09;5051435;28;20086;-70
2022/04/16 08:12:11;;;;;;;21.42;12.43;;;;;;;17.39;53.60;103164.16;5051593;28;20025;-70
2022/04/16 08:14:36;;;;;;;22.33;10.98;;;;;;;17.34;52.92;103162.00;5051451;28;20064;-70
2022/04/16 08:17:02;;;;;;;22.17;12.93;;;;;;;17.61;52.53;103163.25;5051202;28;20094;-70
2022/04/16 08:19:27;;;;;;;22.27;11.60;;;;;;;17.56;51.75;103165.66;5051003;28;20043;-70
2022/04/16 08:21:53;;;;;;;22.58;12.30;;;;;;;17.53;51.54;103172.25;5051177;28;20035;-71
2022/04/16 08:24:38;;;;;;;20.98;12.20;;;;;;;17.68;51.72;103169.56;5051352;28;20044;-71
2022/04/16 08:27:04;;;;;;;19.55;11.25;;;;;;;18.18;50.32;103167.06;5051271;28;20486;-70
2022/04/16 08:29:29;;;;;;;24.65;11.38;;;;;;;18.54;50.84;103163.50;5051056;28;20060;-70
2022/04/16 08:31:55;;;;;;;17.27;10.05;;;;;;;18.77;47.88;103172.28;5049849;28;20112;-71
2022/04/16 08:34:20;;;;;;;20.77;11.15;;;;;;;18.41;48.27;103175.00;5051004;28;20151;-71
2022/04/16 08:36:45;;;;;;;19.58;10.63;;;;;;;18.06;48.98;103180.25;5051036;28;20022;-71
2022/04/16 08:39:11;;;;;;;18.70;11.25;;;;;;;17.61;50.06;103173.19;5050983;28;20037;-71
2022/04/16 08:41:38;;;;;;;20.23;11.15;;;;;;;16.90;51.85;103176.28;5051047;28;20016;-70
2022/04/16 08:44:05;;;;;;;19.05;10.35;;;;;;;15.84;54.09;103182.28;5050801;28;20403;-70
2022/04/16 08:46:32;;;;;;;19.65;11.02;;;;;;;14.86;57.48;103170.69;5050655;28;20032;-70
2022/04/16 08:48:58;;;;;;;19.55;10.73;;;;;;;14.27;59.30;103177.97;5050833;28;20028;-70
2022/04/16 08:51:25;;;;;;;22.83;12.25;;;;;;;13.71;61.42;103177.59;5050665;28;20031;-70
2022/04/16 08:53:51;;;;;;;18.23;10.20;;;;;;;13.26;62.72;103183.16;5050582;28;21036;-70
2022/04/16 08:56:16;;;;;;;20.50;11.82;;;;;;;12.98;64.41;103179.78;5050718;28;20047;-70
2022/04/16 08:58:42;;;;;;;21.88;12.00;;;;;;;12.78;65.64;103173.72;5050572;28;20029;-70
2022/04/16 09:01:08;;;;;;;18.90;10.90;;;;;;;12.52;64.10;103174.50;5032616;28;20450;-70
2022/04/16 09:03:35;;;;;;;17.63;9.23;;;;;;;12.48;66.32;103179.31;5050367;28;20048;-70
2022/04/16 09:06:01;;;;;;;20.10;9.65;;;;;;;12.51;64.95;103172.81;5050386;28;20039;-71
2022/04/16 09:08:31;;;;;;;20.27;10.10;;;;;;;12.67;66.61;103170.28;5050454;28;20033;-71
2022/04/16 09:11:13;;;;;;;17.60;10.52;;;;;;;12.83;64.96;103163.41;5050306;28;20065;-71
2022/04/16 09:13:56;;;;;;;18.13;10.27;;;;;;;12.99;64.92;103173.41;5050167;28;20043;-70
2022/04/16 09:16:23;;;;;;;22.52;10.75;;;;;;;13.02;65.28;103176.63;5049979;28;20575;-70
2022/04/16 09:18:50;;;;;;;21.63;10.73;;;;;;;12.93;66.26;103174.88;5049296;28;20035;-70
2022/04/16 09:21:17;;;;;;;18.40;9.68;;;;;;;13.06;64.95;103166.44;5049930;28;20109;-70
2022/04/16 09:23:52;;;;;;;17.30;9.07;;;;;;;13.19;62.72;103168.72;5050214;28;20041;-70
2022/04/16 09:26:38;;;;;;;15.73;8.88;;;;;;;13.29;63.90;103178.34;5046064;28;20396;-71
2022/04/16 09:29:10;;;;;;;20.45;11.13;;;;;;;13.19;64.38;103171.38;5050031;28;20032;-70
2022/04/16 09:31:40;;;;;;;16.35;8.98;;;;;;;13.06;64.37;103172.63;5049939;28;20029;-70
2022/04/16 09:34:14;;;;;;;17.85;8.15;;;;;;;12.93;62.14;103173.03;5050098;28;20045;-71
2022/04/16 09:36:40;;;;;;;15.95;8.32;;;;;;;12.89;62.50;103166.31;5049833;28;20068;-70
2022/04/16 09:39:07;;;;;;;15.85;7.93;;;;;;;12.87;62.77;103157.59;5049834;28;20109;-70
2022/04/16 09:41:38;;;;;;;14.55;7.63;;;;;;;13.04;61.45;103161.22;5049660;28;20435;-70
2022/04/16 09:44:15;;;;;;;15.07;7.93;;;;;;;13.09;59.74;103166.94;5049692;28;20029;-70
2022/04/16 09:46:44;;;;;;;15.70;7.38;;;;;;;13.06;59.57;103159.22;5049704;28;20401;-70
2022/04/16 09:49:09;;;;;;;13.38;6.55;;;;;;;13.02;58.80;103173.09;5049264;28;20033;-70
2022/04/16 09:51:35;;;;;;;11.20;6.38;;;;;;;13.06;58.40;103155.72;5049834;28;20036;-70
2022/04/16 09:54:04;;;;;;;13.20;7.13;;;;;;;13.08;59.76;103157.25;5049594;28;20037;-71
2022/04/16 09:56:33;;;;;;;17.88;10.25;;;;;;;13.24;60.96;103156.50;5049423;28;20119;-71
2022/04/16 09:59:01;;;;;;;18.67;9.20;;;;;;;13.42;60.60;103156.50;5049315;28;20037;-70
2022/04/16 10:01:28;;;;;;;14.70;8.00;;;;;;;13.48;60.62;103155.00;5049467;28;20183;-70
2022/04/16 10:03:54;;;;;;;15.93;8.27;;;;;;;13.50;58.66;103153.84;5049267;28;20053;-70
2022/04/16 10:06:21;;;;;;;14.32;8.27;;;;;;;13.50;57.72;103159.22;5049516;28;20129;-70
2022/04/16 10:08:49;;;;;;;13.95;6.95;;;;;;;13.54;59.13;103144.47;5049426;28;20032;-70
2022/04/16 10:11:41;;;;;;;12.82;6.53;;;;;;;13.71;57.18;103160.66;5049197;28;20031;-70
2022/04/16 10:14:24;;;;;;;12.98;5.63;;;;;;;13.74;56.97;103160.34;5049201;28;20044;-70
2022/04/16 10:17:15;;;;;;;10.45;5.13;;;;;;;13.73;57.39;103153.31;5049328;28;20468;-70
2022/04/16 10:19:46;;;;;;;8.98;4.80;;;;;;;13.74;53.61;103147.78;5049220;28;20025;-70
2022/04/16 10:22:25;;;;;;;10.70;4.68;;;;;;;13.71;55.61;103145.41;5049275;28;20025;-70
2022/04/16 10:24:53;;;;;;;5.72;3.70;;;;;;;13.73;52.45;103138.06;5049218;28;20043;-70
2022/04/16 10:27:42;;;;;;;7.82;2.85;;;;;;;13.94;51.86;103143.00;5049025;28;20041;-70
2022/04/16 10:30:12;;;;;;;3.65;2.30;;;;;;;14.03;50.48;103138.47;5045615;28;20037;-70
2022/04/16 10:32:42;;;;;;;11.05;4.97;;;;;;;14.07;50.77;103141.66;5049146;28;20032;-70
2022/04/16 10:35:17;;;;;;;10.82;6.40;;;;;;;14.14;52.63;103148.06;5047731;28;20033;-70
2022/04/16 10:37:45;;;;;;;8.75;4.80;;;;;;;14.14;52.84;103137.34;5049190;28;20029;-70
2022/04/16 10:40:20;;;;;;;9.38;4.30;;;;;;;14.31;54.67;103146.28;5048953;28;20021;-70
2022/04/16 10:43:07;;;;;;;6.97;4.40;;;;;;;14.28;50.80;103143.91;5048999;28;20029;-70
2022/04/16 10:45:35;;;;;;;7.97;5.10;;;;;;;14.08;51.57;103146.88;5048564;28;20128;-70
2022/04/16 10:48:02;;;;;;;8.90;5.30;;;;;;;14.17;53.58;103153.09;5048724;28;20056;-70
2022/04/16 10:50:28;;;;;;;7.70;4.57;;;;;;;14.18;51.78;103128.78;5049076;28;20025;-70
2022/04/16 10:52:56;;;;;;;8.07;5.10;;;;;;;14.30;52.74;103145.41;5048904;28;20112;-70
2022/04/16 10:55:32;;;;;;;9.27;5.28;;;;;;;13.97;52.11;103142.66;5048937;28;20060;-70
2022/04/16 10:57:58;;;;;;;9.88;5.68;;;;;;;13.95;53.77;103141.16;5047937;28;20037;-70
2022/04/16 11:00:40;;;;;;;12.43;5.60;;;;;;;14.11;53.99;103145.72;5048187;28;20036;-70
2022/04/16 11:03:17;;;;;;;12.40;5.35;;;;;;;14.21;53.31;103154.47;5048863;28;20110;-70
2022/04/16 11:05:42;;;;;;;9.77;4.95;;;;;;;14.00;51.88;103136.97;5048893;28;20352;-70
2022/04/16 11:08:10;;;;;;;6.45;4.28;;;;;;;13.70;53.73;103135.69;5047603;28;20029;-70
2022/04/16 11:10:36;;;;;;;11.18;5.75;;;;;;;13.64;54.59;103148.91;5048727;28;20060;-70
2022/04/16 11:13:02;;;;;;;12.45;5.97;;;;;;;13.63;54.23;103139.19;5048641;28;20072;-70
2022/04/16 11:15:28;;;;;;;10.00;5.28;;;;;;;13.51;53.55;103139.44;5048660;28;20036;-70
2022/04/16 11:17:58;;;;;;;12.90;6.35;;;;;;;13.45;54.39;103140.09;5046785;28;20013;-70
2022/04/16 11:20:26;;;;;;;12.07;6.07;;;;;;;13.46;53.36;103131.03;5043766;28;20024;-75
2022/04/16 11:22:51;;;;;;;10.43;5.35;;;;;;;13.63;52.96;103142.69;5043305;28;20082;-70
2022/04/16 11:25:17;;;;;;;11.05;5.95;;;;;;;13.78;52.75;103132.19;5043984;28;20220;-69
2022/04/16 11:36:07;;;;;;;12.23;5.57;;;;;;;14.05;53.91;103135.66;5044540;28;20124;-69
2022/04/16 11:38:34;;;;;;;10.02;5.43;;;;;;;14.13;54.60;103151.78;5047281;28;20083;-71